sensor_id;sensor_type;location;lat;lon;timestamp;temperature;humidity
69595;DHT22;56800;52.142;5.364;2023-10-31T00:00:50;11.00;85.30
69595;DHT22;56800;52.142;5.364;2023-10-31T00:03:17;11.00;85.30
69595;DHT22;56800;52.142;5.364;2023-10-31T00:05:44;11.00;85.30
69595;DHT22;56800;52.142;5.364;2023-10-31T00:08:10;11.00;85.30
69595;DHT22;56800;52.142;5.364;2023-10-31T00:10:37;11.00;85.30
69595;DHT22;56800;52.142;5.364;2023-10-31T00:13:04;11.00;85.30
69595;DHT22;56800;52.142;5.364;2023-10-31T00:15:31;11.00;85.30
69595;DHT22;56800;52.142;5.364;2023-10-31T00:17:57;11.00;85.40
69595;DHT22;56800;52.142;5.364;2023-10-31T00:20:24;11.00;85.30
69595;DHT22;56800;52.142;5.364;2023-10-31T00:22:51;11.10;85.30
69595;DHT22;56800;52.142;5.364;2023-10-31T00:25:18;11.10;86.00
69595;DHT22;56800;52.142;5.364;2023-10-31T00:27:44;11.10;85.20
69595;DHT22;56800;52.142;5.364;2023-10-31T00:30:11;11.10;85.20
69595;DHT22;56800;52.142;5.364;2023-10-31T00:32:38;11.10;85.20
69595;DHT22;56800;52.142;5.364;2023-10-31T00:35:05;11.10;85.30
69595;DHT22;56800;52.142;5.364;2023-10-31T00:37:32;11.10;85.30
69595;DHT22;56800;52.142;5.364;2023-10-31T00:39:59;11.10;85.40
69595;DHT22;56800;52.142;5.364;2023-10-31T00:42:25;11.10;85.40
69595;DHT22;56800;52.142;5.364;2023-10-31T00:44:52;11.10;85.40
69595;DHT22;56800;52.142;5.364;2023-10-31T00:47:18;11.10;85.40
69595;DHT22;56800;52.142;5.364;2023-10-31T00:49:45;11.10;85.40
69595;DHT22;56800;52.142;5.364;2023-10-31T00:52:12;11.10;85.30
69595;DHT22;56800;52.142;5.364;2023-10-31T00:54:39;11.10;85.40
69595;DHT22;56800;52.142;5.364;2023-10-31T00:57:05;11.10;85.30
69595;DHT22;56800;52.142;5.364;2023-10-31T00:59:32;11.10;85.40
69595;DHT22;56800;52.142;5.364;2023-10-31T01:01:59;11.10;85.40
69595;DHT22;56800;52.142;5.364;2023-10-31T01:04:25;11.10;85.40
69595;DHT22;56800;52.142;5.364;2023-10-31T01:06:52;11.10;85.40
69595;DHT22;56800;52.142;5.364;2023-10-31T01:09:19;11.10;85.40
69595;DHT22;56800;52.142;5.364;2023-10-31T01:11:46;11.10;85.50
69595;DHT22;56800;52.142;5.364;2023-10-31T01:14:12;11.20;85.50
69595;DHT22;56800;52.142;5.364;2023-10-31T01:16:42;11.10;85.40
69595;DHT22;56800;52.142;5.364;2023-10-31T01:19:08;11.20;85.50
69595;DHT22;56800;52.142;5.364;2023-10-31T01:21:35;11.20;85.60
69595;DHT22;56800;52.142;5.364;2023-10-31T01:24:02;11.10;85.50
69595;DHT22;56800;52.142;5.364;2023-10-31T01:26:28;11.10;85.50
69595;DHT22;56800;52.142;5.364;2023-10-31T01:28:55;11.10;85.50
69595;DHT22;56800;52.142;5.364;2023-10-31T01:31:22;11.10;85.60
69595;DHT22;56800;52.142;5.364;2023-10-31T01:33:49;11.10;85.50
69595;DHT22;56800;52.142;5.364;2023-10-31T01:36:16;11.20;85.60
69595;DHT22;56800;52.142;5.364;2023-10-31T01:38:44;11.20;85.60
69595;DHT22;56800;52.142;5.364;2023-10-31T01:41:12;11.20;85.60
69595;DHT22;56800;52.142;5.364;2023-10-31T01:43:39;11.20;85.70
69595;DHT22;56800;52.142;5.364;2023-10-31T01:46:07;11.20;85.70
69595;DHT22;56800;52.142;5.364;2023-10-31T01:48:34;11.20;85.60
69595;DHT22;56800;52.142;5.364;2023-10-31T01:51:02;11.20;85.70
69595;DHT22;56800;52.142;5.364;2023-10-31T01:53:32;11.20;85.70
69595;DHT22;56800;52.142;5.364;2023-10-31T01:56:00;11.30;85.80
69595;DHT22;56800;52.142;5.364;2023-10-31T01:58:34;11.30;85.70
69595;DHT22;56800;52.142;5.364;2023-10-31T02:01:01;11.30;85.70
69595;DHT22;56800;52.142;5.364;2023-10-31T02:03:28;11.30;85.70
69595;DHT22;56800;52.142;5.364;2023-10-31T02:05:56;11.30;85.70
69595;DHT22;56800;52.142;5.364;2023-10-31T02:08:24;11.30;85.70
69595;DHT22;56800;52.142;5.364;2023-10-31T02:10:51;11.30;85.70
69595;DHT22;56800;52.142;5.364;2023-10-31T02:13:18;11.30;85.70
69595;DHT22;56800;52.142;5.364;2023-10-31T02:15:45;11.30;85.70
69595;DHT22;56800;52.142;5.364;2023-10-31T02:18:13;11.30;85.70
69595;DHT22;56800;52.142;5.364;2023-10-31T02:20:39;11.30;85.70
69595;DHT22;56800;52.142;5.364;2023-10-31T02:23:06;11.30;85.70
69595;DHT22;56800;52.142;5.364;2023-10-31T02:25:33;11.30;85.70
69595;DHT22;56800;52.142;5.364;2023-10-31T02:28:00;11.30;85.60
69595;DHT22;56800;52.142;5.364;2023-10-31T02:30:27;11.30;85.60
69595;DHT22;56800;52.142;5.364;2023-10-31T02:32:54;11.30;85.70
69595;DHT22;56800;52.142;5.364;2023-10-31T02:35:21;11.30;85.70
69595;DHT22;56800;52.142;5.364;2023-10-31T02:37:48;11.30;85.80
69595;DHT22;56800;52.142;5.364;2023-10-31T02:40:15;11.30;85.80
69595;DHT22;56800;52.142;5.364;2023-10-31T02:42:42;11.30;85.90
69595;DHT22;56800;52.142;5.364;2023-10-31T02:45:09;11.30;86.00
69595;DHT22;56800;52.142;5.364;2023-10-31T02:47:35;11.30;86.00
69595;DHT22;56800;52.142;5.364;2023-10-31T02:50:02;11.30;86.00
69595;DHT22;56800;52.142;5.364;2023-10-31T02:52:29;11.30;86.10
69595;DHT22;56800;52.142;5.364;2023-10-31T02:54:56;11.30;86.10
69595;DHT22;56800;52.142;5.364;2023-10-31T02:57:22;11.30;86.10
69595;DHT22;56800;52.142;5.364;2023-10-31T02:59:49;11.30;86.10
69595;DHT22;56800;52.142;5.364;2023-10-31T03:02:16;11.30;86.10
69595;DHT22;56800;52.142;5.364;2023-10-31T03:04:42;11.30;86.00
69595;DHT22;56800;52.142;5.364;2023-10-31T03:07:09;11.30;86.10
69595;DHT22;56800;52.142;5.364;2023-10-31T03:09:36;11.30;86.10
69595;DHT22;56800;52.142;5.364;2023-10-31T03:12:03;11.30;86.10
69595;DHT22;56800;52.142;5.364;2023-10-31T03:14:30;11.30;86.10
69595;DHT22;56800;52.142;5.364;2023-10-31T03:16:56;11.30;86.10
69595;DHT22;56800;52.142;5.364;2023-10-31T03:19:23;11.30;86.10
69595;DHT22;56800;52.142;5.364;2023-10-31T03:21:50;11.30;86.20
69595;DHT22;56800;52.142;5.364;2023-10-31T03:24:16;11.30;86.30
69595;DHT22;56800;52.142;5.364;2023-10-31T03:26:43;11.30;86.40
69595;DHT22;56800;52.142;5.364;2023-10-31T03:29:10;11.30;86.40
69595;DHT22;56800;52.142;5.364;2023-10-31T03:31:37;11.30;86.40
69595;DHT22;56800;52.142;5.364;2023-10-31T03:34:03;11.30;86.30
69595;DHT22;56800;52.142;5.364;2023-10-31T03:36:30;11.30;86.40
69595;DHT22;56800;52.142;5.364;2023-10-31T03:38:57;11.30;86.40
69595;DHT22;56800;52.142;5.364;2023-10-31T03:41:24;11.40;86.50
69595;DHT22;56800;52.142;5.364;2023-10-31T03:43:50;11.40;86.50
69595;DHT22;56800;52.142;5.364;2023-10-31T03:46:17;11.40;86.40
69595;DHT22;56800;52.142;5.364;2023-10-31T03:48:44;11.30;86.40
69595;DHT22;56800;52.142;5.364;2023-10-31T03:51:10;11.30;86.30
69595;DHT22;56800;52.142;5.364;2023-10-31T03:53:37;11.40;86.40
69595;DHT22;56800;52.142;5.364;2023-10-31T03:56:04;11.40;86.40
69595;DHT22;56800;52.142;5.364;2023-10-31T03:58:31;11.40;86.30
69595;DHT22;56800;52.142;5.364;2023-10-31T04:00:58;11.40;86.40
69595;DHT22;56800;52.142;5.364;2023-10-31T04:03:25;11.40;86.30
69595;DHT22;56800;52.142;5.364;2023-10-31T04:05:51;11.30;86.20
69595;DHT22;56800;52.142;5.364;2023-10-31T04:08:18;11.30;86.30
69595;DHT22;56800;52.142;5.364;2023-10-31T04:10:45;11.30;86.30
69595;DHT22;56800;52.142;5.364;2023-10-31T04:13:12;11.30;86.20
69595;DHT22;56800;52.142;5.364;2023-10-31T04:15:38;11.30;86.10
69595;DHT22;56800;52.142;5.364;2023-10-31T04:18:05;11.30;86.10
69595;DHT22;56800;52.142;5.364;2023-10-31T04:20:32;11.30;86.10
69595;DHT22;56800;52.142;5.364;2023-10-31T04:22:58;11.30;86.10
69595;DHT22;56800;52.142;5.364;2023-10-31T04:25:25;11.30;86.10
69595;DHT22;56800;52.142;5.364;2023-10-31T04:27:53;11.30;86.10
69595;DHT22;56800;52.142;5.364;2023-10-31T04:30:20;11.30;86.10
69595;DHT22;56800;52.142;5.364;2023-10-31T04:32:48;11.30;86.00
69595;DHT22;56800;52.142;5.364;2023-10-31T04:35:14;11.30;86.00
69595;DHT22;56800;52.142;5.364;2023-10-31T04:37:41;11.30;85.90
69595;DHT22;56800;52.142;5.364;2023-10-31T04:40:08;11.30;86.00
69595;DHT22;56800;52.142;5.364;2023-10-31T04:42:35;11.30;86.00
69595;DHT22;56800;52.142;5.364;2023-10-31T04:45:02;11.30;86.00
69595;DHT22;56800;52.142;5.364;2023-10-31T04:47:29;11.30;85.90
69595;DHT22;56800;52.142;5.364;2023-10-31T04:49:57;11.30;85.90
69595;DHT22;56800;52.142;5.364;2023-10-31T04:52:23;11.30;85.90
69595;DHT22;56800;52.142;5.364;2023-10-31T04:54:52;11.30;85.80
69595;DHT22;56800;52.142;5.364;2023-10-31T04:57:19;11.30;86.50
69595;DHT22;56800;52.142;5.364;2023-10-31T04:59:45;11.30;85.70
69595;DHT22;56800;52.142;5.364;2023-10-31T05:02:12;11.30;85.70
69595;DHT22;56800;52.142;5.364;2023-10-31T05:04:39;11.30;85.60
69595;DHT22;56800;52.142;5.364;2023-10-31T05:07:07;11.30;85.60
69595;DHT22;56800;52.142;5.364;2023-10-31T05:09:35;11.20;85.50
69595;DHT22;56800;52.142;5.364;2023-10-31T05:12:02;11.20;85.40
69595;DHT22;56800;52.142;5.364;2023-10-31T05:14:29;11.20;85.40
69595;DHT22;56800;52.142;5.364;2023-10-31T05:16:56;11.20;85.40
69595;DHT22;56800;52.142;5.364;2023-10-31T05:19:22;11.20;85.40
69595;DHT22;56800;52.142;5.364;2023-10-31T05:21:49;11.20;85.40
69595;DHT22;56800;52.142;5.364;2023-10-31T05:24:16;11.20;85.40
69595;DHT22;56800;52.142;5.364;2023-10-31T05:26:43;11.20;85.40
69595;DHT22;56800;52.142;5.364;2023-10-31T05:29:10;11.20;85.40
69595;DHT22;56800;52.142;5.364;2023-10-31T05:31:37;11.20;85.40
69595;DHT22;56800;52.142;5.364;2023-10-31T05:34:04;11.20;85.30
69595;DHT22;56800;52.142;5.364;2023-10-31T05:36:31;11.10;85.20
69595;DHT22;56800;52.142;5.364;2023-10-31T05:38:58;11.10;85.30
69595;DHT22;56800;52.142;5.364;2023-10-31T05:41:25;11.10;85.20
69595;DHT22;56800;52.142;5.364;2023-10-31T05:43:51;11.10;85.30
69595;DHT22;56800;52.142;5.364;2023-10-31T05:46:18;11.10;85.20
69595;DHT22;56800;52.142;5.364;2023-10-31T05:48:46;11.00;85.30
69595;DHT22;56800;52.142;5.364;2023-10-31T05:51:18;11.00;85.30
69595;DHT22;56800;52.142;5.364;2023-10-31T05:53:47;11.00;85.30
69595;DHT22;56800;52.142;5.364;2023-10-31T05:56:15;11.00;85.40
69595;DHT22;56800;52.142;5.364;2023-10-31T05:58:42;11.00;85.30
69595;DHT22;56800;52.142;5.364;2023-10-31T06:01:09;11.00;85.40
69595;DHT22;56800;52.142;5.364;2023-10-31T06:03:36;11.00;85.40
69595;DHT22;56800;52.142;5.364;2023-10-31T06:06:04;11.00;85.40
69595;DHT22;56800;52.142;5.364;2023-10-31T06:08:31;11.00;85.40
69595;DHT22;56800;52.142;5.364;2023-10-31T06:10:58;11.00;85.30
69595;DHT22;56800;52.142;5.364;2023-10-31T06:13:25;11.00;85.30
69595;DHT22;56800;52.142;5.364;2023-10-31T06:15:55;10.90;85.30
69595;DHT22;56800;52.142;5.364;2023-10-31T06:18:27;10.90;85.30
69595;DHT22;56800;52.142;5.364;2023-10-31T06:20:54;10.90;86.10
69595;DHT22;56800;52.142;5.364;2023-10-31T06:23:20;10.90;85.50
69595;DHT22;56800;52.142;5.364;2023-10-31T06:25:47;10.90;84.80
69595;DHT22;56800;52.142;5.364;2023-10-31T06:28:14;10.90;85.50
69595;DHT22;56800;52.142;5.364;2023-10-31T06:30:41;10.90;85.40
69595;DHT22;56800;52.142;5.364;2023-10-31T06:33:08;10.90;85.40
69595;DHT22;56800;52.142;5.364;2023-10-31T06:35:36;10.90;85.50
69595;DHT22;56800;52.142;5.364;2023-10-31T06:38:03;10.90;85.50
69595;DHT22;56800;52.142;5.364;2023-10-31T06:40:30;10.90;86.20
69595;DHT22;56800;52.142;5.364;2023-10-31T06:42:57;10.90;85.40
69595;DHT22;56800;52.142;5.364;2023-10-31T06:45:23;10.90;85.40
69595;DHT22;56800;52.142;5.364;2023-10-31T06:47:50;10.90;85.40
69595;DHT22;56800;52.142;5.364;2023-10-31T06:50:17;10.90;85.40
69595;DHT22;56800;52.142;5.364;2023-10-31T06:52:46;10.90;85.40
69595;DHT22;56800;52.142;5.364;2023-10-31T06:55:13;10.90;85.30
69595;DHT22;56800;52.142;5.364;2023-10-31T06:57:40;10.90;85.30
69595;DHT22;56800;52.142;5.364;2023-10-31T07:00:07;10.90;85.40
69595;DHT22;56800;52.142;5.364;2023-10-31T07:02:35;10.80;85.40
69595;DHT22;56800;52.142;5.364;2023-10-31T07:05:03;10.90;85.50
69595;DHT22;56800;52.142;5.364;2023-10-31T07:07:30;10.90;85.50
69595;DHT22;56800;52.142;5.364;2023-10-31T07:09:57;10.90;85.50
69595;DHT22;56800;52.142;5.364;2023-10-31T07:12:24;10.90;85.50
69595;DHT22;56800;52.142;5.364;2023-10-31T07:14:50;10.90;85.60
69595;DHT22;56800;52.142;5.364;2023-10-31T07:17:17;10.80;85.60
69595;DHT22;56800;52.142;5.364;2023-10-31T07:19:44;10.90;85.70
69595;DHT22;56800;52.142;5.364;2023-10-31T07:22:10;10.90;85.70
69595;DHT22;56800;52.142;5.364;2023-10-31T07:24:37;10.90;85.70
69595;DHT22;56800;52.142;5.364;2023-10-31T07:27:04;10.90;85.70
69595;DHT22;56800;52.142;5.364;2023-10-31T07:29:31;10.90;85.70
69595;DHT22;56800;52.142;5.364;2023-10-31T07:31:57;11.00;85.80
69595;DHT22;56800;52.142;5.364;2023-10-31T07:34:24;11.00;85.80
69595;DHT22;56800;52.142;5.364;2023-10-31T07:36:51;11.00;85.80
69595;DHT22;56800;52.142;5.364;2023-10-31T07:39:18;10.90;85.80
69595;DHT22;56800;52.142;5.364;2023-10-31T07:41:44;11.00;85.80
69595;DHT22;56800;52.142;5.364;2023-10-31T07:44:11;11.00;85.70
69595;DHT22;56800;52.142;5.364;2023-10-31T07:46:38;11.00;85.80
69595;DHT22;56800;52.142;5.364;2023-10-31T07:49:05;11.00;85.80
69595;DHT22;56800;52.142;5.364;2023-10-31T07:51:32;11.00;85.90
69595;DHT22;56800;52.142;5.364;2023-10-31T07:53:58;11.00;85.90
69595;DHT22;56800;52.142;5.364;2023-10-31T07:56:26;11.00;86.80
69595;DHT22;56800;52.142;5.364;2023-10-31T07:58:53;11.10;86.10
69595;DHT22;56800;52.142;5.364;2023-10-31T08:01:22;11.10;86.10
69595;DHT22;56800;52.142;5.364;2023-10-31T08:03:49;11.10;86.20
69595;DHT22;56800;52.142;5.364;2023-10-31T08:06:16;11.10;86.20
69595;DHT22;56800;52.142;5.364;2023-10-31T08:08:42;11.20;86.20
69595;DHT22;56800;52.142;5.364;2023-10-31T08:11:10;11.20;86.20
69595;DHT22;56800;52.142;5.364;2023-10-31T08:13:38;11.20;86.10
69595;DHT22;56800;52.142;5.364;2023-10-31T08:16:05;11.30;86.20
69595;DHT22;56800;52.142;5.364;2023-10-31T08:18:33;11.30;86.20
69595;DHT22;56800;52.142;5.364;2023-10-31T08:21:00;11.30;86.40
69595;DHT22;56800;52.142;5.364;2023-10-31T08:23:29;11.40;86.40
69595;DHT22;56800;52.142;5.364;2023-10-31T08:25:56;11.40;86.20
69595;DHT22;56800;52.142;5.364;2023-10-31T08:28:23;11.40;86.00
69595;DHT22;56800;52.142;5.364;2023-10-31T08:30:49;11.40;86.00
69595;DHT22;56800;52.142;5.364;2023-10-31T08:33:16;11.40;86.00
69595;DHT22;56800;52.142;5.364;2023-10-31T08:35:43;11.50;86.10
69595;DHT22;56800;52.142;5.364;2023-10-31T08:38:10;11.50;86.20
69595;DHT22;56800;52.142;5.364;2023-10-31T08:40:49;11.50;86.20
69595;DHT22;56800;52.142;5.364;2023-10-31T08:43:16;11.60;86.50
69595;DHT22;56800;52.142;5.364;2023-10-31T08:45:43;11.70;86.70
69595;DHT22;56800;52.142;5.364;2023-10-31T08:48:10;11.80;86.60
69595;DHT22;56800;52.142;5.364;2023-10-31T08:50:37;11.90;86.80
69595;DHT22;56800;52.142;5.364;2023-10-31T08:53:04;12.00;86.80
69595;DHT22;56800;52.142;5.364;2023-10-31T08:55:31;12.10;86.20
69595;DHT22;56800;52.142;5.364;2023-10-31T08:57:57;12.10;85.80
69595;DHT22;56800;52.142;5.364;2023-10-31T09:00:24;12.10;85.90
69595;DHT22;56800;52.142;5.364;2023-10-31T09:02:51;12.10;86.20
69595;DHT22;56800;52.142;5.364;2023-10-31T09:05:18;12.20;86.20
69595;DHT22;56800;52.142;5.364;2023-10-31T09:07:45;12.20;86.10
69595;DHT22;56800;52.142;5.364;2023-10-31T09:10:12;12.30;86.10
69595;DHT22;56800;52.142;5.364;2023-10-31T09:12:39;12.30;86.10
69595;DHT22;56800;52.142;5.364;2023-10-31T09:15:06;12.40;86.30
69595;DHT22;56800;52.142;5.364;2023-10-31T09:17:33;12.60;87.80
69595;DHT22;56800;52.142;5.364;2023-10-31T09:20:00;13.00;89.40
69595;DHT22;56800;52.142;5.364;2023-10-31T09:22:27;13.60;89.30
69595;DHT22;56800;52.142;5.364;2023-10-31T09:24:53;14.30;87.80
69595;DHT22;56800;52.142;5.364;2023-10-31T09:27:20;14.90;85.80
69595;DHT22;56800;52.142;5.364;2023-10-31T09:29:47;15.40;84.50
69595;DHT22;56800;52.142;5.364;2023-10-31T09:32:14;16.30;84.20
69595;DHT22;56800;52.142;5.364;2023-10-31T09:34:41;17.50;81.20
69595;DHT22;56800;52.142;5.364;2023-10-31T09:37:08;18.70;77.70
69595;DHT22;56800;52.142;5.364;2023-10-31T09:39:35;19.00;74.60
69595;DHT22;56800;52.142;5.364;2023-10-31T09:42:02;19.10;73.90
69595;DHT22;56800;52.142;5.364;2023-10-31T09:44:29;19.10;73.50
69595;DHT22;56800;52.142;5.364;2023-10-31T09:46:56;18.80;72.20
69595;DHT22;56800;52.142;5.364;2023-10-31T09:49:23;18.40;72.10
69595;DHT22;56800;52.142;5.364;2023-10-31T09:51:50;18.00;73.40
69595;DHT22;56800;52.142;5.364;2023-10-31T09:54:18;18.00;73.50
69595;DHT22;56800;52.142;5.364;2023-10-31T09:56:44;18.00;73.50
69595;DHT22;56800;52.142;5.364;2023-10-31T09:59:14;17.70;72.70
69595;DHT22;56800;52.142;5.364;2023-10-31T10:01:41;17.30;73.40
69595;DHT22;56800;52.142;5.364;2023-10-31T10:04:09;17.10;74.50
69595;DHT22;56800;52.142;5.364;2023-10-31T10:06:40;17.00;74.60
69595;DHT22;56800;52.142;5.364;2023-10-31T10:09:15;16.90;75.10
69595;DHT22;56800;52.142;5.364;2023-10-31T10:11:42;16.80;75.40
69595;DHT22;56800;52.142;5.364;2023-10-31T10:14:11;16.90;75.80
69595;DHT22;56800;52.142;5.364;2023-10-31T10:16:38;16.80;75.50
69595;DHT22;56800;52.142;5.364;2023-10-31T10:19:18;16.90;75.70
69595;DHT22;56800;52.142;5.364;2023-10-31T10:21:48;16.70;74.80
69595;DHT22;56800;52.142;5.364;2023-10-31T10:24:16;16.60;75.00
69595;DHT22;56800;52.142;5.364;2023-10-31T10:26:43;16.50;75.20
69595;DHT22;56800;52.142;5.364;2023-10-31T10:29:10;16.40;75.50
69595;DHT22;56800;52.142;5.364;2023-10-31T10:31:36;16.40;76.70
69595;DHT22;56800;52.142;5.364;2023-10-31T10:34:03;16.60;76.70
69595;DHT22;56800;52.142;5.364;2023-10-31T10:36:32;16.70;75.80
69595;DHT22;56800;52.142;5.364;2023-10-31T10:39:00;16.80;75.40
69595;DHT22;56800;52.142;5.364;2023-10-31T10:41:28;16.80;74.80
69595;DHT22;56800;52.142;5.364;2023-10-31T10:43:58;16.70;74.70
69595;DHT22;56800;52.142;5.364;2023-10-31T10:46:33;16.60;74.50
69595;DHT22;56800;52.142;5.364;2023-10-31T10:49:03;16.50;74.40
69595;DHT22;56800;52.142;5.364;2023-10-31T10:52:27;16.30;74.30
69595;DHT22;56800;52.142;5.364;2023-10-31T10:54:54;16.10;74.90
69595;DHT22;56800;52.142;5.364;2023-10-31T10:57:46;16.00;75.40
69595;DHT22;56800;52.142;5.364;2023-10-31T11:00:14;15.90;75.20
69595;DHT22;56800;52.142;5.364;2023-10-31T11:02:43;15.80;75.10
69595;DHT22;56800;52.142;5.364;2023-10-31T11:05:10;15.60;75.40
69595;DHT22;56800;52.142;5.364;2023-10-31T11:07:38;15.50;75.60
69595;DHT22;56800;52.142;5.364;2023-10-31T11:10:05;15.40;75.70
69595;DHT22;56800;52.142;5.364;2023-10-31T11:12:33;15.40;76.10
69595;DHT22;56800;52.142;5.364;2023-10-31T11:15:01;15.30;76.20
69595;DHT22;56800;52.142;5.364;2023-10-31T11:17:37;15.20;76.20
69595;DHT22;56800;52.142;5.364;2023-10-31T11:20:05;15.20;76.40
69595;DHT22;56800;52.142;5.364;2023-10-31T11:22:46;15.20;76.70
69595;DHT22;56800;52.142;5.364;2023-10-31T11:25:19;15.20;76.90
69595;DHT22;56800;52.142;5.364;2023-10-31T11:28:11;15.30;77.00
69595;DHT22;56800;52.142;5.364;2023-10-31T11:30:40;15.20;77.00
69595;DHT22;56800;52.142;5.364;2023-10-31T11:33:11;15.20;77.10
69595;DHT22;56800;52.142;5.364;2023-10-31T11:35:40;15.10;77.30
69595;DHT22;56800;52.142;5.364;2023-10-31T11:38:09;15.10;77.30
69595;DHT22;56800;52.142;5.364;2023-10-31T11:43:16;15.10;77.40
69595;DHT22;56800;52.142;5.364;2023-10-31T11:45:44;15.00;77.40
69595;DHT22;56800;52.142;5.364;2023-10-31T11:48:15;15.00;77.40
69595;DHT22;56800;52.142;5.364;2023-10-31T11:50:41;15.00;77.40
69595;DHT22;56800;52.142;5.364;2023-10-31T11:53:12;14.90;77.30
69595;DHT22;56800;52.142;5.364;2023-10-31T11:55:41;14.80;77.10
69595;DHT22;56800;52.142;5.364;2023-10-31T11:58:26;14.80;77.40
69595;DHT22;56800;52.142;5.364;2023-10-31T12:01:02;14.80;77.40
69595;DHT22;56800;52.142;5.364;2023-10-31T12:03:37;14.70;77.50
69595;DHT22;56800;52.142;5.364;2023-10-31T12:06:05;14.60;77.70
69595;DHT22;56800;52.142;5.364;2023-10-31T12:08:37;14.60;77.90
69595;DHT22;56800;52.142;5.364;2023-10-31T12:13:32;14.50;78.40
69595;DHT22;56800;52.142;5.364;2023-10-31T12:15:59;14.40;78.50
69595;DHT22;56800;52.142;5.364;2023-10-31T12:18:28;14.40;78.80
69595;DHT22;56800;52.142;5.364;2023-10-31T12:20:55;14.30;78.80
69595;DHT22;56800;52.142;5.364;2023-10-31T12:23:22;14.30;79.10
69595;DHT22;56800;52.142;5.364;2023-10-31T12:25:50;14.30;79.30
69595;DHT22;56800;52.142;5.364;2023-10-31T12:28:21;14.30;79.50
69595;DHT22;56800;52.142;5.364;2023-10-31T12:30:50;14.20;79.50
69595;DHT22;56800;52.142;5.364;2023-10-31T12:33:18;14.20;79.60
69595;DHT22;56800;52.142;5.364;2023-10-31T12:35:45;14.10;79.80
69595;DHT22;56800;52.142;5.364;2023-10-31T12:38:12;14.10;80.10
69595;DHT22;56800;52.142;5.364;2023-10-31T12:40:46;14.10;80.30
69595;DHT22;56800;52.142;5.364;2023-10-31T12:43:13;14.10;80.40
69595;DHT22;56800;52.142;5.364;2023-10-31T12:45:40;14.10;80.40
69595;DHT22;56800;52.142;5.364;2023-10-31T12:48:08;14.10;80.60
69595;DHT22;56800;52.142;5.364;2023-10-31T12:50:36;14.10;80.60
69595;DHT22;56800;52.142;5.364;2023-10-31T12:53:04;14.10;80.50
69595;DHT22;56800;52.142;5.364;2023-10-31T12:55:38;14.10;80.30
69595;DHT22;56800;52.142;5.364;2023-10-31T12:58:06;14.00;80.40
69595;DHT22;56800;52.142;5.364;2023-10-31T13:00:35;14.00;80.50
69595;DHT22;56800;52.142;5.364;2023-10-31T13:03:06;14.00;80.60
69595;DHT22;56800;52.142;5.364;2023-10-31T13:05:35;14.00;80.70
69595;DHT22;56800;52.142;5.364;2023-10-31T13:08:03;14.00;80.50
69595;DHT22;56800;52.142;5.364;2023-10-31T13:10:33;14.00;80.40
69595;DHT22;56800;52.142;5.364;2023-10-31T13:12:59;13.90;80.40
69595;DHT22;56800;52.142;5.364;2023-10-31T13:15:26;13.90;80.40
69595;DHT22;56800;52.142;5.364;2023-10-31T13:17:53;13.90;80.50
69595;DHT22;56800;52.142;5.364;2023-10-31T13:20:21;13.90;80.60
69595;DHT22;56800;52.142;5.364;2023-10-31T13:22:48;13.90;80.60
69595;DHT22;56800;52.142;5.364;2023-10-31T13:25:15;13.90;80.80
69595;DHT22;56800;52.142;5.364;2023-10-31T13:27:44;13.90;80.80
69595;DHT22;56800;52.142;5.364;2023-10-31T13:30:11;13.80;80.80
69595;DHT22;56800;52.142;5.364;2023-10-31T13:32:38;13.80;80.90
69595;DHT22;56800;52.142;5.364;2023-10-31T13:35:06;13.80;81.00
69595;DHT22;56800;52.142;5.364;2023-10-31T13:37:33;13.80;81.00
69595;DHT22;56800;52.142;5.364;2023-10-31T13:40:02;13.80;81.10
69595;DHT22;56800;52.142;5.364;2023-10-31T13:42:29;13.90;81.10
69595;DHT22;56800;52.142;5.364;2023-10-31T13:44:55;13.90;81.10
69595;DHT22;56800;52.142;5.364;2023-10-31T13:47:22;13.90;81.00
69595;DHT22;56800;52.142;5.364;2023-10-31T13:49:49;13.90;80.90
69595;DHT22;56800;52.142;5.364;2023-10-31T13:52:16;13.90;80.80
69595;DHT22;56800;52.142;5.364;2023-10-31T13:54:42;13.80;80.60
69595;DHT22;56800;52.142;5.364;2023-10-31T13:57:10;13.80;80.60
69595;DHT22;56800;52.142;5.364;2023-10-31T13:59:36;13.80;80.70
69595;DHT22;56800;52.142;5.364;2023-10-31T14:02:03;13.80;80.60
69595;DHT22;56800;52.142;5.364;2023-10-31T14:04:30;13.70;80.40
69595;DHT22;56800;52.142;5.364;2023-10-31T14:06:57;13.60;80.40
69595;DHT22;56800;52.142;5.364;2023-10-31T14:09:25;13.60;80.40
69595;DHT22;56800;52.142;5.364;2023-10-31T14:11:51;13.60;80.50
69595;DHT22;56800;52.142;5.364;2023-10-31T14:14:18;13.50;80.40
69595;DHT22;56800;52.142;5.364;2023-10-31T14:16:47;13.60;80.50
69595;DHT22;56800;52.142;5.364;2023-10-31T14:19:15;13.50;80.40
69595;DHT22;56800;52.142;5.364;2023-10-31T14:21:43;13.50;80.40
69595;DHT22;56800;52.142;5.364;2023-10-31T14:24:10;13.50;80.30
69595;DHT22;56800;52.142;5.364;2023-10-31T14:26:39;13.50;80.30
69595;DHT22;56800;52.142;5.364;2023-10-31T14:29:07;13.40;80.30
69595;DHT22;56800;52.142;5.364;2023-10-31T14:31:41;13.40;80.40
69595;DHT22;56800;52.142;5.364;2023-10-31T14:34:09;13.40;80.40
69595;DHT22;56800;52.142;5.364;2023-10-31T14:36:36;13.40;80.60
69595;DHT22;56800;52.142;5.364;2023-10-31T14:39:03;13.40;80.60
69595;DHT22;56800;52.142;5.364;2023-10-31T14:41:31;13.40;80.60
69595;DHT22;56800;52.142;5.364;2023-10-31T14:44:00;13.40;80.70
69595;DHT22;56800;52.142;5.364;2023-10-31T14:46:31;13.40;80.80
69595;DHT22;56800;52.142;5.364;2023-10-31T14:48:59;13.40;80.90
69595;DHT22;56800;52.142;5.364;2023-10-31T14:51:25;13.40;80.80
69595;DHT22;56800;52.142;5.364;2023-10-31T14:53:52;13.30;80.80
69595;DHT22;56800;52.142;5.364;2023-10-31T14:56:19;13.30;80.60
69595;DHT22;56800;52.142;5.364;2023-10-31T14:58:46;13.30;80.60
69595;DHT22;56800;52.142;5.364;2023-10-31T15:01:12;13.20;80.60
69595;DHT22;56800;52.142;5.364;2023-10-31T15:03:40;13.20;80.80
69595;DHT22;56800;52.142;5.364;2023-10-31T15:06:07;13.10;80.80
69595;DHT22;56800;52.142;5.364;2023-10-31T15:08:34;13.10;81.10
69595;DHT22;56800;52.142;5.364;2023-10-31T15:11:01;13.10;81.30
69595;DHT22;56800;52.142;5.364;2023-10-31T15:13:28;13.00;81.30
69595;DHT22;56800;52.142;5.364;2023-10-31T15:15:54;13.00;81.30
69595;DHT22;56800;52.142;5.364;2023-10-31T15:18:21;13.00;81.40
69595;DHT22;56800;52.142;5.364;2023-10-31T15:20:48;12.90;81.40
69595;DHT22;56800;52.142;5.364;2023-10-31T15:23:15;12.90;81.50
69595;DHT22;56800;52.142;5.364;2023-10-31T15:25:42;12.80;81.60
69595;DHT22;56800;52.142;5.364;2023-10-31T15:28:09;12.90;81.80
69595;DHT22;56800;52.142;5.364;2023-10-31T15:30:36;12.80;81.80
69595;DHT22;56800;52.142;5.364;2023-10-31T15:33:03;12.80;81.80
69595;DHT22;56800;52.142;5.364;2023-10-31T15:35:30;12.80;81.80
69595;DHT22;56800;52.142;5.364;2023-10-31T15:37:57;12.80;82.00